Time;durP1;ratioP1;P1;durP2;ratioP2;P2;SDS_P1;SDS_P2;PMS_P1;PMS_P2;Temp;Humidity;BMP_temperature;BMP_pressure;BME280_temperature;BME280_humidity;BME280_pressure;Samples;Min_cycle;Max_cycle;Signal;HPM_P1;HPM_P2
2023/07/11 00:01:21;;;;;;;5.50;5.03;;;16.10;1.00;;;;;;5053277;28;20233;-74
2023/07/11 00:03:47;;;;;;;6.00;4.30;;;16.10;1.00;;;;;;5053100;28;20169;-75
2023/07/11 00:06:20;;;;;;;8.70;3.93;;;16.10;1.00;;;;;;5052262;28;20281;-75
2023/07/11 00:08:46;;;;;;;8.00;3.90;;;16.10;1.00;;;;;;5052990;28;20218;-68
2023/07/11 00:11:16;;;;;;;4.70;4.30;;;16.00;1.00;;;;;;5053281;28;20439;-75
2023/07/11 00:13:42;;;;;;;4.97;4.33;;;16.00;1.00;;;;;;5053085;28;20425;-67
2023/07/11 00:16:10;;;;;;;4.60;4.20;;;16.00;1.00;;;;;;5052118;28;20425;-75
2023/07/11 00:18:36;;;;;;;5.30;4.13;;;16.00;1.00;;;;;;5053430;28;20449;-67
2023/07/11 00:21:04;;;;;;;8.83;5.00;;;16.00;1.00;;;;;;5037773;28;20511;-69
2023/07/11 00:23:29;;;;;;;5.23;4.60;;;16.00;1.00;;;;;;5065587;28;20179;-75
2023/07/11 00:25:55;;;;;;;5.70;4.30;;;15.90;1.00;;;;;;5051978;28;20401;-69
2023/07/11 00:28:22;;;;;;;7.90;4.20;;;15.90;1.00;;;;;;5053035;28;20171;-68
2023/07/11 00:30:48;;;;;;;9.13;5.00;;;15.90;1.00;;;;;;5053109;28;20190;-75
2023/07/11 00:33:14;;;;;;;7.07;3.93;;;15.80;1.00;;;;;;5053050;28;20394;-69
2023/07/11 00:35:43;;;;;;;8.23;4.20;;;15.80;1.00;;;;;;5034007;28;20444;-75
2023/07/11 00:38:09;;;;;;;4.63;4.13;;;15.80;1.00;;;;;;5052408;28;20686;-75
2023/07/11 00:40:40;;;;;;;5.87;4.23;;;15.80;1.00;;;;;;5054882;28;20484;-74
2023/07/11 00:43:11;;;;;;;6.50;3.90;;;15.70;1.00;;;;;;5056934;28;20167;-73
2023/07/11 00:45:58;;;;;;;4.80;3.90;;;15.70;1.00;;;;;;5075131;28;20428;-70
2023/07/11 00:48:24;;;;;;;9.90;3.70;;;15.70;1.00;;;;;;5076684;28;20924;-69
2023/07/11 00:50:53;;;;;;;4.43;4.03;;;15.60;1.00;;;;;;5075777;28;20429;-71
2023/07/11 00:53:18;;;;;;;6.07;4.10;;;15.60;1.00;;;;;;5056684;28;20446;-67
2023/07/11 00:55:45;;;;;;;6.30;3.97;;;15.60;1.00;;;;;;5055736;28;20432;-75
2023/07/11 00:58:15;;;;;;;5.30;4.33;;;15.60;1.00;;;;;;5056444;28;20341;-72
2023/07/11 01:00:41;;;;;;;4.60;4.13;;;15.50;1.00;;;;;;5056544;28;20889;-70
2023/07/11 01:03:06;;;;;;;5.17;3.83;;;15.50;1.00;;;;;;5056683;28;20471;-70
2023/07/11 01:05:32;;;;;;;4.50;4.10;;;15.40;1.00;;;;;;5055694;28;20482;-75
2023/07/11 01:07:58;;;;;;;7.53;4.77;;;15.40;1.00;;;;;;5056123;28;20205;-75
2023/07/11 01:10:24;;;;;;;5.10;4.07;;;15.40;1.00;;;;;;5038611;28;20631;-67
2023/07/11 01:12:57;;;;;;;9.70;4.37;;;15.40;1.00;;;;;;5056566;28;20254;-68
2023/07/11 01:15:23;;;;;;;5.00;3.90;;;15.40;1.00;;;;;;5055595;28;20175;-70
2023/07/11 01:17:48;;;;;;;6.00;4.10;;;15.40;1.00;;;;;;5064396;28;20482;-75
2023/07/11 01:20:14;;;;;;;7.10;5.03;;;15.40;1.00;;;;;;5076073;28;20202;-70
2023/07/11 01:22:40;;;;;;;5.53;4.33;;;15.40;1.00;;;;;;5076288;28;20170;-75
2023/07/11 01:25:11;;;;;;;4.97;3.60;;;15.30;1.00;;;;;;5055806;28;20182;-67
2023/07/11 01:27:38;;;;;;;6.13;5.50;;;15.30;1.00;;;;;;5057958;28;20183;-68
2023/07/11 01:30:07;;;;;;;5.50;4.80;;;15.30;1.00;;;;;;5058482;28;20421;-69
2023/07/11 01:32:33;;;;;;;4.63;4.23;;;15.30;1.00;;;;;;5075969;28;20408;-67
2023/07/11 01:34:59;;;;;;;9.50;5.47;;;15.30;1.00;;;;;;5049179;28;20457;-75
2023/07/11 01:37:25;;;;;;;5.63;4.63;;;15.30;1.00;;;;;;5055216;28;20534;-75
2023/07/11 01:39:50;;;;;;;5.40;4.80;;;15.30;1.00;;;;;;5069195;28;20198;-68
2023/07/11 01:42:16;;;;;;;5.20;4.07;;;15.30;1.00;;;;;;5075939;28;20496;-75
2023/07/11 01:44:42;;;;;;;15.67;5.10;;;15.30;1.00;;;;;;5075763;28;20177;-67
2023/07/11 01:47:08;;;;;;;5.03;4.53;;;15.30;1.00;;;;;;5053913;28;20210;-74
2023/07/11 01:49:34;;;;;;;7.00;5.27;;;15.30;1.00;;;;;;5059149;28;20428;-67
2023/07/11 01:52:08;;;;;;;6.87;4.97;;;15.30;1.00;;;;;;5074596;28;20405;-67
2023/07/11 01:54:33;;;;;;;8.10;5.10;;;15.30;1.00;;;;;;5047407;28;20435;-67
2023/07/11 01:56:59;;;;;;;5.40;4.73;;;15.30;1.00;;;;;;5036660;28;20860;-68
2023/07/11 01:59:26;;;;;;;7.70;5.40;;;15.30;1.00;;;;;;5039896;28;20647;-68
2023/07/11 02:01:52;;;;;;;8.90;6.17;;;15.30;1.00;;;;;;5055455;28;20417;-67
2023/07/11 02:04:21;;;;;;;7.87;5.23;;;15.30;1.00;;;;;;5055359;28;20409;-75
2023/07/11 02:06:49;;;;;;;6.00;4.60;;;15.30;1.00;;;;;;5054218;28;20179;-71
2023/07/11 02:09:15;;;;;;;11.90;5.43;;;15.20;1.00;;;;;;5055065;28;20917;-75
2023/07/11 02:11:41;;;;;;;11.70;4.90;;;15.20;1.00;;;;;;5055563;28;20446;-72
2023/07/11 02:14:06;;;;;;;5.17;4.67;;;15.20;1.00;;;;;;5055370;28;20401;-72
2023/07/11 02:16:32;;;;;;;5.53;4.57;;;15.20;1.00;;;;;;5036276;28;20194;-67
2023/07/11 02:18:58;;;;;;;7.10;5.27;;;15.10;1.00;;;;;;5037256;28;20285;-67
2023/07/11 02:21:23;;;;;;;4.60;4.17;;;15.10;1.00;;;;;;5055053;28;20197;-67
2023/07/11 02:23:49;;;;;;;8.83;4.97;;;15.10;1.00;;;;;;5037285;28;20512;-75
2023/07/11 02:26:16;;;;;;;8.73;5.17;;;15.10;1.00;;;;;;5053791;28;20195;-70
2023/07/11 02:28:42;;;;;;;7.27;5.73;;;15.10;1.00;;;;;;5055010;28;20405;-68
2023/07/11 02:31:07;;;;;;;11.10;5.57;;;15.10;1.00;;;;;;5054875;28;20774;-67
2023/07/11 02:33:33;;;;;;;10.40;5.70;;;15.10;1.00;;;;;;5037065;28;20175;-68
2023/07/11 02:35:59;;;;;;;9.53;5.73;;;15.10;1.00;;;;;;5053770;28;21262;-68
2023/07/11 02:38:24;;;;;;;10.03;5.43;;;15.00;1.00;;;;;;5060233;28;20166;-76
2023/07/11 02:40:50;;;;;;;5.30;4.80;;;15.00;1.00;;;;;;5074627;28;20214;-75
2023/07/11 02:43:17;;;;;;;6.40;4.80;;;15.00;1.00;;;;;;5074669;28;20170;-75
2023/07/11 02:45:43;;;;;;;5.83;4.60;;;15.00;1.00;;;;;;5055877;28;20634;-67
2023/07/11 02:48:09;;;;;;;5.90;5.30;;;15.00;1.00;;;;;;5074489;28;20440;-75
2023/07/11 02:50:34;;;;;;;6.70;5.27;;;15.00;1.00;;;;;;5074462;28;20212;-71
2023/07/11 02:53:00;;;;;;;6.47;5.50;;;15.00;1.00;;;;;;5068333;28;20746;-67
2023/07/11 02:55:26;;;;;;;18.37;5.70;;;15.00;1.00;;;;;;5053579;28;20674;-74
2023/07/11 02:57:52;;;;;;;6.90;5.70;;;15.00;1.00;;;;;;5054216;28;20210;-67
2023/07/11 03:00:18;;;;;;;7.70;5.80;;;15.00;1.00;;;;;;5054232;28;20825;-67
2023/07/11 03:02:43;;;;;;;5.73;5.13;;;15.00;1.00;;;;;;5054163;28;20178;-75
2023/07/11 03:05:09;;;;;;;7.17;5.47;;;15.00;1.00;;;;;;5053247;28;20193;-67
2023/07/11 03:07:35;;;;;;;6.70;4.93;;;15.10;1.00;;;;;;5053683;28;20195;-73
2023/07/11 03:10:01;;;;;;;7.07;5.70;;;15.00;1.00;;;;;;5054350;28;20513;-75
2023/07/11 03:12:26;;;;;;;9.50;5.00;;;15.10;1.00;;;;;;5053530;28;20670;-67
2023/07/11 03:14:52;;;;;;;9.10;5.23;;;15.00;1.00;;;;;;5053982;28;20179;-70
2023/07/11 03:17:18;;;;;;;9.23;5.40;;;15.00;1.00;;;;;;5053092;28;20199;-74
2023/07/11 03:19:43;;;;;;;8.57;4.80;;;15.00;1.00;;;;;;5053867;28;20202;-70
2023/07/11 03:22:09;;;;;;;5.90;4.67;;;15.10;1.00;;;;;;5054038;28;20189;-75
2023/07/11 03:24:35;;;;;;;14.90;5.57;;;15.10;1.00;;;;;;5071227;28;20224;-68
2023/07/11 03:27:02;;;;;;;4.43;3.93;;;15.10;1.00;;;;;;5055244;28;20182;-67
2023/07/11 03:29:27;;;;;;;7.13;4.73;;;15.10;1.10;;;;;;5072181;28;20193;-75
2023/07/11 03:31:53;;;;;;;12.40;4.80;;;15.20;6.20;;;;;;5073851;28;20888;-75
2023/07/11 03:34:19;;;;;;;6.40;4.70;;;15.20;12.50;;;;;;5055988;28;20175;-70
2023/07/11 03:36:44;;;;;;;8.00;4.00;;;15.30;21.10;;;;;;5055037;28;20543;-75
2023/07/11 03:39:10;;;;;;;5.17;4.20;;;15.30;26.70;;;;;;5060032;28;20260;-67
2023/07/11 03:41:36;;;;;;;11.00;4.50;;;15.40;31.50;;;;;;5053449;28;20183;-75
2023/07/11 03:44:02;;;;;;;11.33;4.30;;;15.40;38.20;;;;;;5053627;28;20186;-75
2023/07/11 03:46:28;;;;;;;6.93;3.70;;;15.40;41.70;;;;;;5052496;28;20191;-74
2023/07/11 03:48:57;;;;;;;3.83;3.53;;;15.40;44.20;;;;;;5053231;28;20440;-68
2023/07/11 03:51:23;;;;;;;6.67;3.50;;;15.50;47.00;;;;;;5061145;28;20483;-67
2023/07/11 03:53:49;;;;;;;5.13;3.63;;;15.60;44.20;;;;;;5047216;28;20441;-76
2023/07/11 03:56:15;;;;;;;4.23;3.67;;;15.60;47.70;;;;;;5034879;28;20203;-76
2023/07/11 03:58:40;;;;;;;9.00;4.33;;;15.60;45.60;;;;;;5053377;28;20705;-74
2023/07/11 04:01:06;;;;;;;8.23;4.10;;;15.60;44.30;;;;;;5053311;28;20639;-67
2023/07/11 04:03:32;;;;;;;4.07;3.17;;;15.60;45.00;;;;;;5053164;28;20175;-68
2023/07/11 04:05:58;;;;;;;4.10;3.80;;;15.60;44.80;;;;;;5052281;28;20258;-67
2023/07/11 04:08:23;;;;;;;4.40;4.00;;;15.60;46.00;;;;;;5053229;28;20171;-71
2023/07/11 04:10:49;;;;;;;5.57;3.40;;;15.70;49.60;;;;;;5053444;28;20174;-67
2023/07/11 04:13:15;;;;;;;9.97;3.73;;;15.70;52.70;;;;;;5053175;28;20167;-68
2023/07/11 04:15:42;;;;;;;4.23;3.87;;;15.80;55.60;;;;;;5051766;28;20242;-70
2023/07/11 04:18:08;;;;;;;10.60;3.50;;;15.80;55.40;;;;;;5053045;28;20270;-68
2023/07/11 04:20:37;;;;;;;7.37;3.87;;;15.90;55.20;;;;;;5035169;28;20555;-68
2023/07/11 04:23:03;;;;;;;7.30;4.27;;;16.00;53.20;;;;;;5040240;28;20183;-67
2023/07/11 04:25:28;;;;;;;10.10;4.10;;;16.00;50.50;;;;;;5072306;28;20407;-76
2023/07/11 04:27:56;;;;;;;5.60;4.70;;;16.10;49.00;;;;;;5055190;28;20204;-76
2023/07/11 04:30:22;;;;;;;4.77;3.50;;;16.20;38.50;;;;;;5073078;28;20170;-68
2023/07/11 04:32:48;;;;;;;5.30;4.13;;;16.20;29.80;;;;;;5072998;28;20420;-75
2023/07/11 04:35:14;;;;;;;4.67;3.50;;;16.30;25.80;;;;;;5072321;28;20252;-67
2023/07/11 04:37:40;;;;;;;6.90;4.33;;;16.30;18.80;;;;;;5067752;28;20457;-72
2023/07/11 04:40:06;;;;;;;7.73;3.30;;;16.40;14.60;;;;;;5052943;28;20219;-75
2023/07/11 04:42:32;;;;;;;3.53;3.23;;;16.50;6.40;;;;;;5052965;28;20207;-67
2023/07/11 04:44:58;;;;;;;6.93;3.13;;;16.50;1.00;;;;;;5052633;28;20434;-69
2023/07/11 04:47:23;;;;;;;3.87;3.57;;;16.60;1.00;;;;;;5034288;28;20214;-67
2023/07/11 04:49:49;;;;;;;5.30;4.10;;;16.70;1.00;;;;;;5035267;28;20179;-68
2023/07/11 04:52:15;;;;;;;8.53;3.90;;;16.80;1.00;;;;;;5052335;28;20693;-65
2023/07/11 04:54:40;;;;;;;5.43;3.57;;;16.90;1.00;;;;;;5052843;28;20270;-73
2023/07/11 04:57:06;;;;;;;4.03;3.10;;;17.00;1.00;;;;;;5051822;28;20195;-71
2023/07/11 04:59:32;;;;;;;9.47;3.43;;;17.10;1.00;;;;;;5034997;28;20730;-65
2023/07/11 05:01:57;;;;;;;12.87;3.80;;;17.10;1.00;;;;;;5052683;28;20557;-69
2023/07/11 05:04:23;;;;;;;6.80;4.00;;;17.20;1.00;;;;;;5052754;28;20177;-71
2023/07/11 05:06:49;;;;;;;5.77;3.00;;;17.30;1.00;;;;;;5064480;28;20728;-69
2023/07/11 05:09:15;;;;;;;7.63;3.40;;;17.40;1.00;;;;;;5058545;28;20225;-67
2023/07/11 05:11:41;;;;;;;5.50;2.70;;;17.50;1.00;;;;;;5072731;28;20254;-64
2023/07/11 05:14:06;;;;;;;4.40;2.10;;;17.60;1.00;;;;;;5046542;28;20221;-65
2023/07/11 05:16:32;;;;;;;8.73;2.80;;;17.70;1.00;;;;;;5052042;28;20429;-65
2023/07/11 05:18:58;;;;;;;5.53;3.10;;;17.80;1.00;;;;;;5052757;28;20191;-72
2023/07/11 05:21:26;;;;;;;8.73;2.77;;;17.90;1.00;;;;;;5052458;28;20182;-73
2023/07/11 05:23:52;;;;;;;2.90;2.40;;;18.00;1.00;;;;;;5053080;28;20437;-65
2023/07/11 05:26:18;;;;;;;3.97;2.57;;;18.00;1.00;;;;;;5052401;28;20445;-72
2023/07/11 05:28:45;;;;;;;3.83;2.00;;;18.20;1.00;;;;;;5056043;28;20167;-65
2023/07/11 05:31:11;;;;;;;5.93;2.40;;;18.20;1.00;;;;;;5056051;28;20877;-72
2023/07/11 05:33:37;;;;;;;6.30;2.97;;;18.30;1.00;;;;;;5056191;28;20488;-65
2023/07/11 05:38:50;;;;;;;21.07;3.07;;;18.40;1.00;;;;;;5056599;28;20460;-70
2023/07/11 05:41:16;;;;;;;5.43;2.93;;;18.40;1.00;;;;;;5055769;28;20927;-65
2023/07/11 05:43:42;;;;;;;6.87;2.60;;;18.40;1.00;;;;;;5055786;28;20504;-65
2023/07/11 05:46:08;;;;;;;5.67;3.00;;;18.40;1.00;;;;;;5054789;28;20167;-65
2023/07/11 05:48:34;;;;;;;6.23;3.70;;;18.50;1.00;;;;;;5055520;28;20421;-65
2023/07/11 05:51:10;;;;;;;6.20;3.30;;;18.40;1.00;;;;;;5055152;28;20178;-76
2023/07/11 05:53:36;;;;;;;7.47;2.90;;;18.50;1.00;;;;;;5037999;28;20186;-72
2023/07/11 05:56:03;;;;;;;6.27;2.40;;;18.50;1.00;;;;;;5054648;28;20401;-69
2023/07/11 05:58:31;;;;;;;3.03;2.67;;;18.60;1.00;;;;;;5037748;28;20410;-68
2023/07/11 06:00:57;;;;;;;3.80;2.97;;;18.60;1.00;;;;;;5065663;28;20460;-77
2023/07/11 06:03:25;;;;;;;16.93;3.13;;;18.70;1.00;;;;;;5075708;28;20492;-67
2023/07/11 06:05:53;;;;;;;6.97;2.80;;;18.90;1.00;;;;;;5073593;28;20446;-72
2023/07/11 06:08:19;;;;;;;10.00;3.17;;;19.00;1.00;;;;;;5074515;28;20508;-73
2023/07/11 06:10:45;;;;;;;4.27;2.20;;;19.20;1.00;;;;;;5075264;28;20467;-68
2023/07/11 06:13:13;;;;;;;5.30;2.60;;;19.20;1.00;;;;;;5075607;28;20785;-75
2023/07/11 06:15:39;;;;;;;6.07;2.73;;;19.20;1.00;;;;;;5056680;28;20764;-76
2023/07/11 06:18:05;;;;;;;5.90;3.00;;;19.30;1.00;;;;;;5075179;28;20440;-69
2023/07/11 06:20:31;;;;;;;7.50;2.63;;;19.30;1.00;;;;;;5075053;28;20511;-77
2023/07/11 06:22:57;;;;;;;9.13;2.90;;;19.30;1.00;;;;;;5054679;28;20183;-68
2023/07/11 06:25:23;;;;;;;6.20;2.60;;;19.30;1.00;;;;;;5036287;28;20409;-75
2023/07/11 06:27:48;;;;;;;6.37;2.83;;;19.40;1.00;;;;;;5056740;28;20194;-76
2023/07/11 06:30:14;;;;;;;5.53;3.07;;;19.40;1.00;;;;;;5075020;28;20170;-76
2023/07/11 06:32:40;;;;;;;8.30;3.00;;;19.50;1.00;;;;;;5074883;28;20236;-72
2023/07/11 06:35:06;;;;;;;6.97;2.23;;;19.70;1.00;;;;;;5073905;28;20185;-68
2023/07/11 06:37:32;;;;;;;11.00;3.27;;;19.90;1.00;;;;;;5059464;28;20464;-68
2023/07/11 06:39:59;;;;;;;6.00;2.50;;;20.00;1.00;;;;;;5054875;28;20873;-72
2023/07/11 06:42:25;;;;;;;11.70;2.83;;;20.10;1.00;;;;;;5071442;28;20627;-77
2023/07/11 06:44:51;;;;;;;6.40;3.10;;;20.10;1.00;;;;;;5074573;28;20216;-72
2023/07/11 06:47:17;;;;;;;13.20;2.70;;;20.20;1.00;;;;;;5073718;28;20554;-68
2023/07/11 06:49:44;;;;;;;3.37;2.63;;;20.10;1.00;;;;;;5074546;28;20178;-77
2023/07/11 06:52:10;;;;;;;5.23;3.10;;;20.20;1.00;;;;;;5055912;28;20179;-69
2023/07/11 06:54:36;;;;;;;7.80;2.63;;;20.20;1.00;;;;;;5054553;28;20441;-67
2023/07/11 06:57:02;;;;;;;6.07;3.20;;;20.20;1.00;;;;;;5046869;28;20819;-76
2023/07/11 06:59:28;;;;;;;4.90;2.37;;;20.20;1.00;;;;;;5074366;28;20448;-77
2023/07/11 07:01:53;;;;;;;8.20;2.90;;;20.20;1.00;;;;;;5056673;28;20431;-67
2023/07/11 07:04:19;;;;;;;5.70;2.40;;;20.30;1.00;;;;;;5074277;28;20173;-77
2023/07/11 07:06:45;;;;;;;11.43;2.90;;;20.30;1.00;;;;;;5059988;28;20675;-68
2023/07/11 07:09:11;;;;;;;6.40;2.67;;;20.40;1.00;;;;;;5054068;28;20638;-74
2023/07/11 07:11:38;;;;;;;5.00;2.60;;;20.60;1.00;;;;;;5054309;28;20167;-77
2023/07/11 07:14:09;;;;;;;4.53;2.83;;;20.60;1.00;;;;;;5053924;28;20465;-68
2023/07/11 07:16:36;;;;;;;5.97;3.83;;;20.70;1.00;;;;;;5053217;28;20449;-76
2023/07/11 07:19:04;;;;;;;3.97;2.50;;;20.80;1.00;;;;;;5053883;28;20949;-77
2023/07/11 07:21:29;;;;;;;7.60;2.80;;;20.90;1.00;;;;;;5053823;28;20890;-77
2023/07/11 07:23:56;;;;;;;8.63;2.63;;;20.90;1.00;;;;;;5053931;28;20432;-77
2023/07/11 07:26:21;;;;;;;7.80;2.60;;;21.00;1.00;;;;;;5053133;28;20195;-68
2023/07/11 07:28:47;;;;;;;8.17;2.67;;;21.20;1.00;;;;;;5053958;28;20405;-75
2023/07/11 07:31:13;;;;;;;6.43;2.60;;;21.20;99.90;;;;;;5053719;28;20179;-77
2023/07/11 07:33:41;;;;;;;4.80;2.60;;;21.30;99.90;;;;;;5053792;28;20159;-75
2023/07/11 07:36:08;;;;;;;10.83;3.10;;;21.40;99.90;;;;;;5054275;28;20437;-77
2023/07/11 07:38:34;;;;;;;5.93;2.30;;;21.50;99.90;;;;;;5053692;28;20849;-72
2023/07/11 07:41:03;;;;;;;7.80;3.00;;;21.70;99.90;;;;;;5071508;28;20510;-69
2023/07/11 07:43:30;;;;;;;5.00;2.27;;;21.70;99.90;;;;;;5073346;28;20439;-77
2023/07/11 07:45:59;;;;;;;6.20;2.73;;;21.80;99.90;;;;;;5072664;28;20411;-68
2023/07/11 07:48:26;;;;;;;8.97;3.63;;;21.90;99.90;;;;;;5055717;28;20515;-67
2023/07/11 07:50:52;;;;;;;5.80;2.53;;;22.10;99.90;;;;;;5065678;28;20436;-68
2023/07/11 07:53:18;;;;;;;7.53;2.20;;;22.10;99.90;;;;;;5053499;28;20429;-77
2023/07/11 07:55:45;;;;;;;5.53;2.80;;;22.20;99.90;;;;;;5052297;28;20441;-69
2023/07/11 07:58:13;;;;;;;3.53;2.07;;;22.30;99.90;;;;;;5036701;28;20830;-77
2023/07/11 08:00:40;;;;;;;4.00;2.40;;;22.40;99.90;;;;;;5053232;28;20453;-68
2023/07/11 08:03:06;;;;;;;8.63;2.23;;;22.50;99.90;;;;;;5053314;28;20394;-77
2023/07/11 08:05:31;;;;;;;6.00;2.53;;;22.60;99.90;;;;;;5052360;28;21004;-68
2023/07/11 08:07:57;;;;;;;3.83;2.13;;;22.60;99.90;;;;;;5053197;28;20512;-68
2023/07/11 08:10:23;;;;;;;3.70;2.10;;;22.70;99.90;;;;;;5035480;28;20185;-72
2023/07/11 08:12:48;;;;;;;5.50;3.27;;;22.70;99.90;;;;;;5053305;28;20170;-74
2023/07/11 08:15:14;;;;;;;4.37;2.33;;;22.80;99.90;;;;;;5052305;28;20628;-68
2023/07/11 08:17:45;;;;;;;5.10;2.00;;;23.00;99.90;;;;;;5035314;28;20290;-74
2023/07/11 08:20:11;;;;;;;4.83;2.13;;;23.20;99.90;;;;;;5053737;28;20190;-76
2023/07/11 08:22:37;;;;;;;2.87;2.20;;;23.40;99.90;;;;;;5035496;28;20433;-68
2023/07/11 08:25:03;;;;;;;5.50;2.33;;;23.60;99.90;;;;;;5051844;28;20443;-74
2023/07/11 08:27:29;;;;;;;3.57;2.17;;;23.60;99.90;;;;;;5053000;28;20286;-77
2023/07/11 08:29:54;;;;;;;2.33;2.07;;;23.50;99.90;;;;;;5064371;28;20553;-67
2023/07/11 08:32:20;;;;;;;3.30;2.20;;;23.50;99.90;;;;;;5073386;28;20178;-69
2023/07/11 08:34:46;;;;;;;3.47;2.17;;;23.60;99.90;;;;;;5073331;28;20253;-68
2023/07/11 08:37:13;;;;;;;6.60;2.20;;;23.70;99.90;;;;;;5054150;28;20289;-75
2023/07/11 08:39:39;;;;;;;4.20;1.80;;;23.70;99.90;;;;;;5052151;28;20551;-68
2023/07/11 08:42:34;;;;;;;8.23;2.40;;;23.80;99.90;;;;;;5052889;28;20401;-75
2023/07/11 08:45:18;;;;;;;2.67;2.00;;;23.90;99.90;;;;;;5050193;28;20518;-74
2023/07/11 08:47:54;;;;;;;2.53;2.30;;;24.00;99.90;;;;;;5052694;28;20499;-67
2023/07/11 08:50:28;;;;;;;2.73;2.40;;;24.00;99.90;;;;;;5052895;28;20459;-77
2023/07/11 08:53:16;;;;;;;2.37;1.80;;;24.10;99.90;;;;;;5052804;28;20416;-74
2023/07/11 08:55:47;;;;;;;3.60;2.17;;;24.20;99.90;;;;;;5051851;28;20409;-71
2023/07/11 08:58:29;;;;;;;5.37;2.03;;;24.30;99.90;;;;;;5052659;28;20421;-67
2023/07/11 09:00:56;;;;;;;9.07;2.87;;;24.50;99.90;;;;;;5053603;28;20459;-76
2023/07/11 09:03:30;;;;;;;6.40;2.33;;;24.60;99.90;;;;;;5056283;28;20452;-74
2023/07/11 09:06:02;;;;;;;5.80;2.33;;;24.80;99.90;;;;;;5065028;28;20433;-68
2023/07/11 09:08:28;;;;;;;4.43;2.90;;;25.00;99.90;;;;;;5072745;28;20417;-75
2023/07/11 09:11:16;;;;;;;5.10;2.07;;;25.10;99.90;;;;;;5068275;28;20469;-78
2023/07/11 09:14:05;;;;;;;6.70;2.70;;;25.10;99.90;;;;;;5061270;28;20424;-72
2023/07/11 09:16:40;;;;;;;6.73;2.10;;;25.10;99.90;;;;;;5065059;28;20444;-68
2023/07/11 09:19:32;;;;;;;3.73;1.90;;;25.20;99.90;;;;;;5055775;28;20819;-72
2023/07/11 09:22:01;;;;;;;5.70;2.70;;;25.30;99.90;;;;;;5056130;28;20449;-68
2023/07/11 09:24:33;;;;;;;3.90;2.43;;;25.50;99.90;;;;;;5056160;28;20401;-68
2023/07/11 09:27:14;;;;;;;3.90;2.90;;;25.70;99.90;;;;;;5055215;28;20567;-77
2023/07/11 09:29:42;;;;;;;2.57;2.20;;;25.80;99.90;;;;;;5055633;28;20421;-67
2023/07/11 09:32:09;;;;;;;6.07;2.67;;;26.10;99.90;;;;;;5075032;28;20519;-69
2023/07/11 09:34:40;;;;;;;5.87;2.10;;;26.40;99.90;;;;;;5054212;28;20437;-71
2023/07/11 09:37:35;;;;;;;7.00;2.30;;;26.30;99.90;;;;;;5037401;28;20437;-68
2023/07/11 09:40:35;;;;;;;4.40;2.07;;;26.40;99.90;;;;;;5055790;28;21075;-76
2023/07/11 09:43:02;;;;;;;3.93;2.33;;;26.40;99.90;;;;;;5055790;28;20941;-74
2023/07/11 09:45:46;;;;;;;4.90;2.07;;;26.50;99.90;;;;;;5054887;28;20401;-76
2023/07/11 09:48:16;;;;;;;6.20;2.60;;;26.70;99.90;;;;;;5055292;28;20444;-77
2023/07/11 09:51:08;;;;;;;3.30;2.40;;;26.80;99.90;;;;;;5056019;28;20464;-67
2023/07/11 09:53:34;;;;;;;4.07;2.23;;;26.90;99.90;;;;;;5055738;28;20401;-69
2023/07/11 09:56:09;;;;;;;4.47;2.30;;;27.10;99.90;;;;;;5054735;28;20944;-74
2023/07/11 09:58:34;;;;;;;3.87;1.83;;;27.40;99.90;;;;;;5055136;28;20162;-76
2023/07/11 10:01:02;;;;;;;5.30;2.47;;;27.80;99.90;;;;;;5055619;28;20468;-68
2023/07/11 10:03:30;;;;;;;2.37;2.17;;;28.30;99.90;;;;;;5041198;28;20700;-78
2023/07/11 10:05:56;;;;;;;4.73;2.73;;;28.40;99.90;;;;;;5053966;28;20918;-71
2023/07/11 10:08:27;;;;;;;4.20;2.40;;;28.50;99.90;;;;;;5072246;28;20428;-77
2023/07/11 10:10:55;;;;;;;2.07;1.97;;;28.70;99.90;;;;;;5075564;28;20454;-78
2023/07/11 10:13:22;;;;;;;4.23;2.17;;;29.00;99.90;;;;;;5074385;28;20400;-78
2023/07/11 10:15:52;;;;;;;4.47;2.30;;;29.20;99.90;;;;;;5071388;28;20563;-71
2023/07/11 10:18:20;;;;;;;5.67;2.40;;;29.10;99.90;;;;;;5049385;28;20843;-69
2023/07/11 10:20:54;;;;;;;6.13;2.30;;;29.10;99.90;;;;;;5055010;28;20539;-67
2023/07/11 10:23:24;;;;;;;4.03;2.40;;;29.10;99.90;;;;;;5055134;28;20484;-72
2023/07/11 10:26:15;;;;;;;3.40;2.30;;;29.00;99.90;;;;;;5054255;28;20882;-74
2023/07/11 10:28:44;;;;;;;8.93;2.60;;;28.60;99.90;;;;;;5056658;28;20406;-69
2023/07/11 10:31:23;;;;;;;4.30;2.30;;;28.50;99.90;;;;;;5075167;28;20405;-72
2023/07/11 10:34:01;;;;;;;4.57;2.67;;;28.60;99.90;;;;;;5065006;28;20447;-74
2023/07/11 10:36:33;;;;;;;2.50;2.10;;;28.60;99.90;;;;;;5053884;28;20421;-77
2023/07/11 10:39:03;;;;;;;1.90;1.80;;;28.60;99.90;;;;;;5054683;28;20441;-73
2023/07/11 10:41:57;;;;;;;5.17;2.03;;;28.60;99.90;;;;;;5054530;28;20370;-75
2023/07/11 10:44:28;;;;;;;3.97;1.97;;;29.10;99.90;;;;;;5054639;28;20401;-74
2023/07/11 10:46:56;;;;;;;2.30;2.10;;;29.40;99.90;;;;;;5053686;28;20930;-69
2023/07/11 10:49:31;;;;;;;1.93;1.63;;;29.60;99.90;;;;;;5055259;28;20437;-69
2023/07/11 10:52:30;;;;;;;3.33;2.20;;;29.90;99.90;;;;;;5054616;28;20413;-68
2023/07/11 10:55:24;;;;;;;3.40;1.90;;;30.10;99.90;;;;;;5054164;28;20419;-70
2023/07/11 10:57:52;;;;;;;4.17;1.70;;;30.10;99.90;;;;;;5054098;28;20461;-68
2023/07/11 11:00:36;;;;;;;4.00;2.40;;;30.10;99.90;;;;;;5054334;28;20452;-68
2023/07/11 11:03:12;;;;;;;3.03;1.93;;;30.10;99.90;;;;;;5036400;28;20769;-69
2023/07/11 11:05:48;;;;;;;5.93;2.27;;;30.20;99.90;;;;;;5053521;28;20467;-68
2023/07/11 11:08:23;;;;;;;7.67;1.80;;;30.30;99.90;;;;;;5054092;28;20429;-76
2023/07/11 11:10:57;;;;;;;2.27;1.40;;;30.40;99.90;;;;;;5054134;28;20397;-74
2023/07/11 11:13:45;;;;;;;1.70;1.53;;;30.60;99.90;;;;;;5054354;28;20399;-76
2023/07/11 11:16:32;;;;;;;3.93;2.20;;;30.80;99.90;;;;;;5053209;28;20484;-77
2023/07/11 11:19:33;;;;;;;2.90;1.67;;;31.00;99.90;;;;;;5054403;28;20465;-77
2023/07/11 11:22:11;;;;;;;3.97;1.70;;;30.80;99.90;;;;;;5053999;28;20397;-68
2023/07/11 11:24:40;;;;;;;4.07;2.60;;;30.80;99.90;;;;;;5053928;28;20409;-76
2023/07/11 11:27:46;;;;;;;5.13;2.17;;;30.90;99.90;;;;;;5052445;28;20449;-75
2023/07/11 11:30:59;;;;;;;3.57;1.70;;;31.00;99.90;;;;;;5054114;28;20421;-76
2023/07/11 11:33:46;;;;;;;6.40;1.97;;;31.20;99.90;;;;;;5039946;28;20452;-69
2023/07/11 11:36:20;;;;;;;2.87;2.67;;;31.30;99.90;;;;;;5035152;28;20504;-77
2023/07/11 11:38:55;;;;;;;3.93;2.10;;;31.50;99.90;;;;;;5036179;28;20944;-76
2023/07/11 11:41:40;;;;;;;5.40;2.20;;;31.60;99.90;;;;;;5072390;28;20428;-77
2023/07/11 11:44:15;;;;;;;5.63;2.00;;;31.30;99.90;;;;;;5073600;28;20399;-68
2023/07/11 11:46:42;;;;;;;2.10;1.90;;;31.30;99.90;;;;;;5072599;28;20448;-72
2023/07/11 11:49:11;;;;;;;1.87;1.70;;;30.90;99.90;;;;;;5065099;28;20464;-69
2023/07/11 11:51:37;;;;;;;4.07;1.70;;;30.80;99.90;;;;;;5053540;28;20412;-69
2023/07/11 11:54:11;;;;;;;3.30;2.10;;;31.10;99.90;;;;;;5053538;28;20492;-76
2023/07/11 11:56:42;;;;;;;2.13;1.70;;;31.50;99.90;;;;;;5034682;28;20437;-76
2023/07/11 11:59:19;;;;;;;3.07;1.93;;;31.50;99.90;;;;;;5035478;28;20448;-77
2023/07/11 12:01:53;;;;;;;6.57;2.23;;;31.80;99.90;;;;;;5053331;28;20431;-78
2023/07/11 12:04:32;;;;;;;3.00;1.90;;;32.10;99.90;;;;;;5053775;28;20474;-76
2023/07/11 12:07:13;;;;;;;2.20;1.90;;;31.90;99.90;;;;;;5062240;28;20544;-76
2023/07/11 12:09:56;;;;;;;2.73;2.53;;;32.20;99.90;;;;;;5072968;28;20404;-72
2023/07/11 12:12:25;;;;;;;5.17;1.80;;;32.20;99.90;;;;;;5073314;28;20975;-72
2023/07/11 12:14:54;;;;;;;4.70;3.63;;;32.50;99.90;;;;;;5054597;28;20458;-69
2023/07/11 12:17:43;;;;;;;4.20;2.30;;;32.10;99.90;;;;;;5072508;28;20486;-72
2023/07/11 12:20:09;;;;;;;3.50;2.40;;;31.30;99.90;;;;;;5072324;28;20454;-77
2023/07/11 12:22:38;;;;;;;2.13;1.97;;;30.80;99.90;;;;;;5044575;28;20429;-77
2023/07/11 12:25:07;;;;;;;3.40;2.10;;;30.50;99.90;;;;;;5052190;28;20443;-69
2023/07/11 12:27:32;;;;;;;3.97;2.43;;;30.40;99.90;;;;;;5052789;28;20452;-76
2023/07/11 12:30:27;;;;;;;3.90;2.77;;;30.20;99.90;;;;;;5035216;28;20445;-76
2023/07/11 12:33:25;;;;;;;2.87;2.67;;;30.60;99.90;;;;;;5059021;28;20200;-75
2023/07/11 12:36:22;;;;;;;7.53;3.03;;;31.50;99.90;;;;;;5019824;28;20425;-76
2023/07/11 12:39:10;;;;;;;2.47;1.90;;;32.20;99.90;;;;;;5063370;28;20772;-74
2023/07/11 12:42:07;;;;;;;5.10;2.80;;;32.40;99.90;;;;;;5059272;28;20412;-73
2023/07/11 12:44:34;;;;;;;3.50;2.57;;;32.30;99.90;;;;;;5068739;28;20414;-77
2023/07/11 12:47:05;;;;;;;4.57;1.97;;;32.40;99.90;;;;;;5055942;28;20503;-68
2023/07/11 12:49:32;;;;;;;4.33;2.30;;;32.00;99.90;;;;;;5056831;28;20424;-68
2023/07/11 12:52:12;;;;;;;4.30;2.00;;;31.70;99.90;;;;;;5056762;28;20405;-77
2023/07/11 12:54:39;;;;;;;2.30;2.03;;;31.70;99.90;;;;;;5056835;28;20496;-75
2023/07/11 12:57:15;;;;;;;2.47;1.90;;;31.80;99.90;;;;;;5055804;28;20424;-69
2023/07/11 12:59:40;;;;;;;4.63;2.50;;;31.60;99.90;;;;;;5056534;28;20976;-77
2023/07/11 13:02:07;;;;;;;2.33;2.00;;;31.60;99.90;;;;;;5058072;28;20433;-68
2023/07/11 13:04:42;;;;;;;3.27;2.20;;;31.50;99.90;;;;;;5056223;28;20177;-68
2023/07/11 13:07:14;;;;;;;2.20;2.00;;;31.30;99.90;;;;;;5037682;28;20563;-68